sensor_id;sensor_type;location;lat;lon;timestamp;P1;durP1;ratioP1;P2;durP2;ratioP2
8044;SDS011;4065;48.754;9.982;2024-02-28T00:01:50;67.75;;;38.90;;
8044;SDS011;4065;48.754;9.982;2024-02-28T00:05:13;67.18;;;38.85;;
8044;SDS011;4065;48.754;9.982;2024-02-28T00:08:36;58.88;;;35.75;;
8044;SDS011;4065;48.754;9.982;2024-02-28T00:11:58;58.53;;;36.15;;
8044;SDS011;4065;48.754;9.982;2024-02-28T00:15:21;59.50;;;36.65;;
8044;SDS011;4065;48.754;9.982;2024-02-28T00:18:45;62.45;;;37.78;;
8044;SDS011;4065;48.754;9.982;2024-02-28T00:22:07;60.67;;;36.60;;
8044;SDS011;4065;48.754;9.982;2024-02-28T00:25:29;73.38;;;39.97;;
8044;SDS011;4065;48.754;9.982;2024-02-28T00:28:51;57.80;;;36.53;;
8044;SDS011;4065;48.754;9.982;2024-02-28T00:32:14;69.32;;;38.17;;
8044;SDS011;4065;48.754;9.982;2024-02-28T00:35:39;65.82;;;37.13;;
8044;SDS011;4065;48.754;9.982;2024-02-28T00:39:02;62.58;;;35.20;;
8044;SDS011;4065;48.754;9.982;2024-02-28T00:42:25;64.50;;;37.22;;
8044;SDS011;4065;48.754;9.982;2024-02-28T00:45:48;68.85;;;38.63;;
8044;SDS011;4065;48.754;9.982;2024-02-28T00:49:11;70.85;;;39.35;;
8044;SDS011;4065;48.754;9.982;2024-02-28T00:52:35;65.55;;;36.22;;
8044;SDS011;4065;48.754;9.982;2024-02-28T00:55:58;70.93;;;38.40;;
8044;SDS011;4065;48.754;9.982;2024-02-28T00:59:21;66.38;;;38.28;;
8044;SDS011;4065;48.754;9.982;2024-02-28T01:02:56;67.15;;;37.03;;
8044;SDS011;4065;48.754;9.982;2024-02-28T01:06:35;71.28;;;38.15;;
8044;SDS011;4065;48.754;9.982;2024-02-28T01:09:59;69.60;;;39.38;;
8044;SDS011;4065;48.754;9.982;2024-02-28T01:13:39;66.60;;;37.83;;
8044;SDS011;4065;48.754;9.982;2024-02-28T01:17:14;64.40;;;34.03;;
8044;SDS011;4065;48.754;9.982;2024-02-28T01:20:51;65.30;;;37.22;;
8044;SDS011;4065;48.754;9.982;2024-02-28T01:24:26;65.38;;;35.65;;
8044;SDS011;4065;48.754;9.982;2024-02-28T01:28:17;73.18;;;38.03;;
8044;SDS011;4065;48.754;9.982;2024-02-28T01:32:04;64.28;;;37.00;;
8044;SDS011;4065;48.754;9.982;2024-02-28T01:35:27;68.70;;;38.00;;
8044;SDS011;4065;48.754;9.982;2024-02-28T01:38:49;61.58;;;34.40;;
8044;SDS011;4065;48.754;9.982;2024-02-28T01:42:11;69.65;;;36.40;;
8044;SDS011;4065;48.754;9.982;2024-02-28T01:45:34;71.65;;;36.83;;
8044;SDS011;4065;48.754;9.982;2024-02-28T01:48:56;62.55;;;34.13;;
8044;SDS011;4065;48.754;9.982;2024-02-28T01:52:18;56.70;;;33.72;;
8044;SDS011;4065;48.754;9.982;2024-02-28T01:55:40;57.67;;;32.85;;
8044;SDS011;4065;48.754;9.982;2024-02-28T01:59:02;56.80;;;33.55;;
8044;SDS011;4065;48.754;9.982;2024-02-28T02:02:26;58.55;;;34.08;;
8044;SDS011;4065;48.754;9.982;2024-02-28T02:05:49;66.43;;;34.20;;
8044;SDS011;4065;48.754;9.982;2024-02-28T02:09:10;62.28;;;35.78;;
8044;SDS011;4065;48.754;9.982;2024-02-28T02:12:33;65.60;;;36.22;;
8044;SDS011;4065;48.754;9.982;2024-02-28T02:15:55;63.53;;;34.22;;
8044;SDS011;4065;48.754;9.982;2024-02-28T02:19:18;65.60;;;35.17;;
8044;SDS011;4065;48.754;9.982;2024-02-28T02:22:43;66.25;;;36.95;;
8044;SDS011;4065;48.754;9.982;2024-02-28T02:26:05;65.50;;;33.72;;
8044;SDS011;4065;48.754;9.982;2024-02-28T02:29:27;69.03;;;34.95;;
8044;SDS011;4065;48.754;9.982;2024-02-28T02:32:49;63.30;;;34.58;;
8044;SDS011;4065;48.754;9.982;2024-02-28T02:36:11;64.55;;;35.33;;
8044;SDS011;4065;48.754;9.982;2024-02-28T02:39:34;64.07;;;35.42;;
8044;SDS011;4065;48.754;9.982;2024-02-28T02:42:56;59.75;;;34.75;;
8044;SDS011;4065;48.754;9.982;2024-02-28T02:46:18;59.30;;;34.33;;
8044;SDS011;4065;48.754;9.982;2024-02-28T02:49:40;53.75;;;33.92;;
8044;SDS011;4065;48.754;9.982;2024-02-28T02:53:02;57.55;;;33.63;;
8044;SDS011;4065;48.754;9.982;2024-02-28T02:56:25;67.00;;;36.05;;
8044;SDS011;4065;48.754;9.982;2024-02-28T02:59:47;69.95;;;36.10;;
8044;SDS011;4065;48.754;9.982;2024-02-28T03:03:09;63.65;;;34.97;;
8044;SDS011;4065;48.754;9.982;2024-02-28T03:06:31;62.88;;;34.35;;
8044;SDS011;4065;48.754;9.982;2024-02-28T03:09:53;62.42;;;34.53;;
8044;SDS011;4065;48.754;9.982;2024-02-28T03:13:16;69.20;;;38.05;;
8044;SDS011;4065;48.754;9.982;2024-02-28T03:16:40;70.28;;;38.55;;
8044;SDS011;4065;48.754;9.982;2024-02-28T03:20:03;67.45;;;38.33;;
8044;SDS011;4065;48.754;9.982;2024-02-28T03:23:27;62.25;;;35.67;;
8044;SDS011;4065;48.754;9.982;2024-02-28T03:26:49;63.05;;;37.33;;
8044;SDS011;4065;48.754;9.982;2024-02-28T03:30:12;63.55;;;35.85;;
8044;SDS011;4065;48.754;9.982;2024-02-28T03:33:34;65.05;;;36.42;;
8044;SDS011;4065;48.754;9.982;2024-02-28T03:36:56;71.25;;;37.85;;
8044;SDS011;4065;48.754;9.982;2024-02-28T03:40:18;67.68;;;36.78;;
8044;SDS011;4065;48.754;9.982;2024-02-28T03:43:40;69.35;;;37.72;;
8044;SDS011;4065;48.754;9.982;2024-02-28T03:47:04;72.00;;;39.60;;
8044;SDS011;4065;48.754;9.982;2024-02-28T03:50:26;75.97;;;40.42;;
8044;SDS011;4065;48.754;9.982;2024-02-28T03:53:48;79.15;;;40.10;;
8044;SDS011;4065;48.754;9.982;2024-02-28T03:57:10;77.97;;;40.92;;
8044;SDS011;4065;48.754;9.982;2024-02-28T04:00:32;80.93;;;40.22;;
8044;SDS011;4065;48.754;9.982;2024-02-28T04:03:55;70.80;;;38.00;;
8044;SDS011;4065;48.754;9.982;2024-02-28T04:07:17;76.85;;;39.72;;
8044;SDS011;4065;48.754;9.982;2024-02-28T04:10:39;77.35;;;38.22;;
8044;SDS011;4065;48.754;9.982;2024-02-28T04:14:01;79.95;;;40.58;;
8044;SDS011;4065;48.754;9.982;2024-02-28T04:17:23;83.65;;;40.28;;
8044;SDS011;4065;48.754;9.982;2024-02-28T04:20:46;73.10;;;37.95;;
8044;SDS011;4065;48.754;9.982;2024-02-28T04:24:08;69.75;;;38.95;;
8044;SDS011;4065;48.754;9.982;2024-02-28T04:27:33;74.07;;;38.35;;
8044;SDS011;4065;48.754;9.982;2024-02-28T04:30:55;70.65;;;37.53;;
8044;SDS011;4065;48.754;9.982;2024-02-28T04:34:17;72.35;;;38.85;;
8044;SDS011;4065;48.754;9.982;2024-02-28T04:37:40;70.32;;;36.65;;
8044;SDS011;4065;48.754;9.982;2024-02-28T04:41:03;73.55;;;37.45;;
8044;SDS011;4065;48.754;9.982;2024-02-28T04:44:24;82.60;;;40.90;;
8044;SDS011;4065;48.754;9.982;2024-02-28T04:47:46;73.65;;;37.97;;
8044;SDS011;4065;48.754;9.982;2024-02-28T04:51:08;74.90;;;38.00;;
8044;SDS011;4065;48.754;9.982;2024-02-28T04:54:32;74.45;;;39.55;;
8044;SDS011;4065;48.754;9.982;2024-02-28T04:57:54;77.00;;;39.08;;
8044;SDS011;4065;48.754;9.982;2024-02-28T05:01:16;77.50;;;40.55;;
8044;SDS011;4065;48.754;9.982;2024-02-28T05:04:38;81.63;;;41.70;;
8044;SDS011;4065;48.754;9.982;2024-02-28T05:08:00;79.47;;;40.72;;
8044;SDS011;4065;48.754;9.982;2024-02-28T05:11:24;77.80;;;38.58;;
8044;SDS011;4065;48.754;9.982;2024-02-28T05:14:46;72.40;;;39.22;;
8044;SDS011;4065;48.754;9.982;2024-02-28T05:18:08;79.32;;;40.88;;
8044;SDS011;4065;48.754;9.982;2024-02-28T05:21:30;68.57;;;37.72;;
8044;SDS011;4065;48.754;9.982;2024-02-28T05:24:52;84.72;;;41.47;;
8044;SDS011;4065;48.754;9.982;2024-02-28T05:28:15;79.03;;;41.72;;
8044;SDS011;4065;48.754;9.982;2024-02-28T05:31:38;77.38;;;39.28;;
8044;SDS011;4065;48.754;9.982;2024-02-28T05:34:59;74.75;;;39.13;;
8044;SDS011;4065;48.754;9.982;2024-02-28T05:38:21;82.45;;;40.47;;
8044;SDS011;4065;48.754;9.982;2024-02-28T05:41:44;74.88;;;39.88;;
8044;SDS011;4065;48.754;9.982;2024-02-28T05:45:07;81.82;;;40.13;;
8044;SDS011;4065;48.754;9.982;2024-02-28T05:48:30;78.47;;;39.22;;
8044;SDS011;4065;48.754;9.982;2024-02-28T05:51:52;80.28;;;39.65;;
8044;SDS011;4065;48.754;9.982;2024-02-28T05:55:15;83.70;;;41.63;;
8044;SDS011;4065;48.754;9.982;2024-02-28T05:58:38;94.88;;;40.88;;
8044;SDS011;4065;48.754;9.982;2024-02-28T06:02:01;87.10;;;40.83;;
8044;SDS011;4065;48.754;9.982;2024-02-28T06:05:23;86.25;;;41.10;;
8044;SDS011;4065;48.754;9.982;2024-02-28T06:08:45;81.95;;;40.65;;
8044;SDS011;4065;48.754;9.982;2024-02-28T06:12:07;82.47;;;40.17;;
8044;SDS011;4065;48.754;9.982;2024-02-28T06:15:30;78.05;;;38.45;;
8044;SDS011;4065;48.754;9.982;2024-02-28T06:18:57;97.90;;;40.58;;
8044;SDS011;4065;48.754;9.982;2024-02-28T06:22:20;83.15;;;38.60;;
8044;SDS011;4065;48.754;9.982;2024-02-28T06:25:45;87.65;;;39.88;;
8044;SDS011;4065;48.754;9.982;2024-02-28T06:29:27;99.95;;;42.42;;
8044;SDS011;4065;48.754;9.982;2024-02-28T06:32:58;101.95;;;43.35;;
8044;SDS011;4065;48.754;9.982;2024-02-28T06:36:22;89.55;;;43.05;;
8044;SDS011;4065;48.754;9.982;2024-02-28T06:39:45;105.32;;;42.90;;
8044;SDS011;4065;48.754;9.982;2024-02-28T06:43:07;102.88;;;43.05;;
8044;SDS011;4065;48.754;9.982;2024-02-28T06:46:29;123.45;;;45.47;;
8044;SDS011;4065;48.754;9.982;2024-02-28T06:49:51;204.77;;;47.53;;
8044;SDS011;4065;48.754;9.982;2024-02-28T06:53:14;115.45;;;44.58;;
8044;SDS011;4065;48.754;9.982;2024-02-28T06:56:37;94.75;;;43.05;;
8044;SDS011;4065;48.754;9.982;2024-02-28T06:59:59;99.65;;;42.25;;
8044;SDS011;4065;48.754;9.982;2024-02-28T07:03:21;96.40;;;42.60;;
8044;SDS011;4065;48.754;9.982;2024-02-28T07:06:45;119.07;;;45.35;;
8044;SDS011;4065;48.754;9.982;2024-02-28T07:10:09;120.13;;;46.03;;
8044;SDS011;4065;48.754;9.982;2024-02-28T07:13:32;114.78;;;43.88;;
8044;SDS011;4065;48.754;9.982;2024-02-28T07:16:54;122.30;;;54.25;;
8044;SDS011;4065;48.754;9.982;2024-02-28T07:20:17;161.30;;;46.22;;
8044;SDS011;4065;48.754;9.982;2024-02-28T07:23:40;131.23;;;49.90;;
8044;SDS011;4065;48.754;9.982;2024-02-28T07:27:03;125.90;;;47.15;;
8044;SDS011;4065;48.754;9.982;2024-02-28T07:30:26;282.90;;;53.88;;
8044;SDS011;4065;48.754;9.982;2024-02-28T07:33:48;101.35;;;40.83;;
8044;SDS011;4065;48.754;9.982;2024-02-28T07:37:10;125.65;;;44.80;;
8044;SDS011;4065;48.754;9.982;2024-02-28T07:40:36;104.90;;;44.35;;
8044;SDS011;4065;48.754;9.982;2024-02-28T07:44:01;104.38;;;43.65;;
8044;SDS011;4065;48.754;9.982;2024-02-28T07:47:24;154.70;;;44.20;;
8044;SDS011;4065;48.754;9.982;2024-02-28T07:50:46;103.13;;;44.22;;
8044;SDS011;4065;48.754;9.982;2024-02-28T07:54:10;111.68;;;44.10;;
8044;SDS011;4065;48.754;9.982;2024-02-28T07:57:32;104.95;;;43.72;;
8044;SDS011;4065;48.754;9.982;2024-02-28T08:00:56;99.70;;;41.58;;
8044;SDS011;4065;48.754;9.982;2024-02-28T08:04:19;92.75;;;41.08;;
8044;SDS011;4065;48.754;9.982;2024-02-28T08:07:40;102.88;;;40.70;;
8044;SDS011;4065;48.754;9.982;2024-02-28T08:11:03;96.68;;;40.75;;
8044;SDS011;4065;48.754;9.982;2024-02-28T08:14:25;92.10;;;39.58;;
8044;SDS011;4065;48.754;9.982;2024-02-28T08:17:48;88.75;;;38.03;;
8044;SDS011;4065;48.754;9.982;2024-02-28T08:21:10;93.45;;;39.00;;
8044;SDS011;4065;48.754;9.982;2024-02-28T08:24:32;84.40;;;37.58;;
8044;SDS011;4065;48.754;9.982;2024-02-28T08:27:54;86.05;;;39.33;;
8044;SDS011;4065;48.754;9.982;2024-02-28T08:31:16;69.35;;;35.60;;
8044;SDS011;4065;48.754;9.982;2024-02-28T08:34:43;66.57;;;32.20;;
8044;SDS011;4065;48.754;9.982;2024-02-28T08:38:05;64.40;;;31.88;;
8044;SDS011;4065;48.754;9.982;2024-02-28T08:41:27;63.65;;;31.45;;
8044;SDS011;4065;48.754;9.982;2024-02-28T08:44:49;66.28;;;31.10;;
8044;SDS011;4065;48.754;9.982;2024-02-28T08:48:11;62.42;;;31.35;;
8044;SDS011;4065;48.754;9.982;2024-02-28T08:51:35;66.60;;;34.22;;
8044;SDS011;4065;48.754;9.982;2024-02-28T08:54:57;57.10;;;30.42;;
8044;SDS011;4065;48.754;9.982;2024-02-28T08:58:20;52.05;;;27.80;;
8044;SDS011;4065;48.754;9.982;2024-02-28T09:01:43;54.28;;;29.60;;
8044;SDS011;4065;48.754;9.982;2024-02-28T09:05:06;66.43;;;31.13;;
8044;SDS011;4065;48.754;9.982;2024-02-28T09:08:30;63.92;;;33.00;;
8044;SDS011;4065;48.754;9.982;2024-02-28T09:11:53;70.32;;;31.85;;
8044;SDS011;4065;48.754;9.982;2024-02-28T09:15:16;60.80;;;30.40;;
8044;SDS011;4065;48.754;9.982;2024-02-28T09:18:38;67.65;;;32.63;;
8044;SDS011;4065;48.754;9.982;2024-02-28T09:22:02;73.90;;;33.45;;
8044;SDS011;4065;48.754;9.982;2024-02-28T09:25:26;68.75;;;33.10;;
8044;SDS011;4065;48.754;9.982;2024-02-28T09:28:48;70.50;;;35.20;;
8044;SDS011;4065;48.754;9.982;2024-02-28T09:32:11;62.42;;;32.47;;
8044;SDS011;4065;48.754;9.982;2024-02-28T09:35:43;67.20;;;31.98;;
8044;SDS011;4065;48.754;9.982;2024-02-28T09:39:06;61.25;;;31.15;;
8044;SDS011;4065;48.754;9.982;2024-02-28T09:42:31;62.90;;;33.25;;
8044;SDS011;4065;48.754;9.982;2024-02-28T09:45:54;65.03;;;31.55;;
8044;SDS011;4065;48.754;9.982;2024-02-28T09:49:21;62.53;;;31.58;;
8044;SDS011;4065;48.754;9.982;2024-02-28T09:52:43;59.60;;;31.05;;
8044;SDS011;4065;48.754;9.982;2024-02-28T09:56:06;60.92;;;30.08;;
8044;SDS011;4065;48.754;9.982;2024-02-28T09:59:29;60.28;;;31.13;;
8044;SDS011;4065;48.754;9.982;2024-02-28T10:02:52;63.17;;;30.98;;
8044;SDS011;4065;48.754;9.982;2024-02-28T10:06:15;60.83;;;32.40;;
8044;SDS011;4065;48.754;9.982;2024-02-28T10:09:40;55.38;;;31.00;;
8044;SDS011;4065;48.754;9.982;2024-02-28T10:13:03;56.75;;;31.55;;
8044;SDS011;4065;48.754;9.982;2024-02-28T10:16:26;64.30;;;30.70;;
8044;SDS011;4065;48.754;9.982;2024-02-28T10:19:51;121.70;;;60.00;;
8044;SDS011;4065;48.754;9.982;2024-02-28T10:23:13;84.85;;;44.67;;
8044;SDS011;4065;48.754;9.982;2024-02-28T10:26:41;65.50;;;33.30;;
8044;SDS011;4065;48.754;9.982;2024-02-28T10:30:04;61.47;;;31.13;;
8044;SDS011;4065;48.754;9.982;2024-02-28T10:33:29;58.03;;;28.02;;
8044;SDS011;4065;48.754;9.982;2024-02-28T10:36:53;56.92;;;30.85;;
8044;SDS011;4065;48.754;9.982;2024-02-28T10:40:15;58.05;;;31.00;;
8044;SDS011;4065;48.754;9.982;2024-02-28T10:43:38;58.70;;;31.95;;
8044;SDS011;4065;48.754;9.982;2024-02-28T10:47:02;56.83;;;30.38;;
8044;SDS011;4065;48.754;9.982;2024-02-28T10:50:25;51.53;;;30.65;;
8044;SDS011;4065;48.754;9.982;2024-02-28T10:53:47;58.13;;;31.08;;
8044;SDS011;4065;48.754;9.982;2024-02-28T10:57:17;59.90;;;29.52;;
8044;SDS011;4065;48.754;9.982;2024-02-28T11:00:41;51.35;;;29.15;;
8044;SDS011;4065;48.754;9.982;2024-02-28T11:04:04;47.83;;;26.50;;
8044;SDS011;4065;48.754;9.982;2024-02-28T11:07:30;43.33;;;27.35;;
8044;SDS011;4065;48.754;9.982;2024-02-28T11:10:55;50.50;;;28.60;;
8044;SDS011;4065;48.754;9.982;2024-02-28T11:14:18;48.10;;;26.52;;
8044;SDS011;4065;48.754;9.982;2024-02-28T11:17:42;46.45;;;26.60;;
8044;SDS011;4065;48.754;9.982;2024-02-28T11:21:06;46.30;;;27.20;;
8044;SDS011;4065;48.754;9.982;2024-02-28T11:24:38;44.50;;;25.92;;
8044;SDS011;4065;48.754;9.982;2024-02-28T11:28:01;47.83;;;26.45;;
8044;SDS011;4065;48.754;9.982;2024-02-28T11:31:23;44.50;;;25.42;;
8044;SDS011;4065;48.754;9.982;2024-02-28T11:34:45;43.17;;;25.85;;
8044;SDS011;4065;48.754;9.982;2024-02-28T11:38:08;47.65;;;27.08;;
8044;SDS011;4065;48.754;9.982;2024-02-28T11:41:34;47.08;;;26.17;;
8044;SDS011;4065;48.754;9.982;2024-02-28T11:44:56;41.45;;;23.95;;
8044;SDS011;4065;48.754;9.982;2024-02-28T11:48:18;44.22;;;24.48;;
8044;SDS011;4065;48.754;9.982;2024-02-28T11:51:40;41.15;;;25.67;;
8044;SDS011;4065;48.754;9.982;2024-02-28T11:55:03;40.38;;;24.35;;
8044;SDS011;4065;48.754;9.982;2024-02-28T11:58:30;41.80;;;26.65;;
8044;SDS011;4065;48.754;9.982;2024-02-28T12:01:52;37.40;;;24.42;;
8044;SDS011;4065;48.754;9.982;2024-02-28T12:05:16;37.47;;;25.17;;
8044;SDS011;4065;48.754;9.982;2024-02-28T12:08:38;39.65;;;23.35;;
8044;SDS011;4065;48.754;9.982;2024-02-28T12:12:00;41.38;;;24.88;;
8044;SDS011;4065;48.754;9.982;2024-02-28T12:15:24;41.20;;;23.83;;
8044;SDS011;4065;48.754;9.982;2024-02-28T12:18:47;40.40;;;25.20;;
8044;SDS011;4065;48.754;9.982;2024-02-28T12:22:09;51.08;;;28.15;;
8044;SDS011;4065;48.754;9.982;2024-02-28T12:25:32;46.70;;;28.23;;
8044;SDS011;4065;48.754;9.982;2024-02-28T12:28:55;40.03;;;24.50;;
8044;SDS011;4065;48.754;9.982;2024-02-28T12:32:18;42.78;;;24.70;;
8044;SDS011;4065;48.754;9.982;2024-02-28T12:35:41;42.72;;;26.05;;
8044;SDS011;4065;48.754;9.982;2024-02-28T12:39:03;43.00;;;25.10;;
8044;SDS011;4065;48.754;9.982;2024-02-28T12:42:26;44.90;;;27.38;;
8044;SDS011;4065;48.754;9.982;2024-02-28T12:46:05;45.20;;;25.40;;
8044;SDS011;4065;48.754;9.982;2024-02-28T12:49:29;43.65;;;28.83;;
8044;SDS011;4065;48.754;9.982;2024-02-28T12:52:52;43.15;;;26.38;;
8044;SDS011;4065;48.754;9.982;2024-02-28T12:56:15;43.70;;;24.88;;
8044;SDS011;4065;48.754;9.982;2024-02-28T12:59:38;41.58;;;25.38;;
8044;SDS011;4065;48.754;9.982;2024-02-28T13:03:08;38.47;;;24.55;;
8044;SDS011;4065;48.754;9.982;2024-02-28T13:06:32;37.28;;;24.23;;
8044;SDS011;4065;48.754;9.982;2024-02-28T13:09:56;38.80;;;24.40;;
8044;SDS011;4065;48.754;9.982;2024-02-28T13:13:20;38.58;;;23.40;;
8044;SDS011;4065;48.754;9.982;2024-02-28T13:16:43;39.00;;;23.90;;
8044;SDS011;4065;48.754;9.982;2024-02-28T13:20:07;39.05;;;22.60;;
8044;SDS011;4065;48.754;9.982;2024-02-28T13:23:32;41.47;;;23.13;;
8044;SDS011;4065;48.754;9.982;2024-02-28T13:26:54;38.40;;;24.60;;
8044;SDS011;4065;48.754;9.982;2024-02-28T13:30:16;42.17;;;25.35;;
8044;SDS011;4065;48.754;9.982;2024-02-28T13:33:38;38.80;;;24.50;;
8044;SDS011;4065;48.754;9.982;2024-02-28T13:37:02;47.92;;;28.27;;
8044;SDS011;4065;48.754;9.982;2024-02-28T13:40:28;39.05;;;24.35;;
8044;SDS011;4065;48.754;9.982;2024-02-28T13:43:51;38.38;;;23.60;;
8044;SDS011;4065;48.754;9.982;2024-02-28T13:47:13;36.83;;;22.45;;
8044;SDS011;4065;48.754;9.982;2024-02-28T13:50:38;42.58;;;23.92;;
8044;SDS011;4065;48.754;9.982;2024-02-28T13:54:01;36.40;;;22.27;;
8044;SDS011;4065;48.754;9.982;2024-02-28T13:57:25;39.80;;;22.35;;
8044;SDS011;4065;48.754;9.982;2024-02-28T14:00:48;37.25;;;22.50;;
8044;SDS011;4065;48.754;9.982;2024-02-28T14:04:11;30.85;;;20.23;;
8044;SDS011;4065;48.754;9.982;2024-02-28T14:07:33;32.55;;;21.25;;
8044;SDS011;4065;48.754;9.982;2024-02-28T14:10:57;34.05;;;22.05;;
8044;SDS011;4065;48.754;9.982;2024-02-28T14:14:21;32.15;;;21.20;;
8044;SDS011;4065;48.754;9.982;2024-02-28T14:17:43;40.40;;;22.90;;
8044;SDS011;4065;48.754;9.982;2024-02-28T14:21:05;32.45;;;21.60;;
8044;SDS011;4065;48.754;9.982;2024-02-28T14:24:27;34.17;;;22.27;;
8044;SDS011;4065;48.754;9.982;2024-02-28T14:27:50;37.70;;;22.83;;
8044;SDS011;4065;48.754;9.982;2024-02-28T14:31:13;36.78;;;22.38;;
8044;SDS011;4065;48.754;9.982;2024-02-28T14:34:35;35.42;;;21.42;;
8044;SDS011;4065;48.754;9.982;2024-02-28T14:37:57;36.58;;;22.83;;
8044;SDS011;4065;48.754;9.982;2024-02-28T14:41:19;39.92;;;25.00;;
8044;SDS011;4065;48.754;9.982;2024-02-28T14:44:42;37.35;;;23.63;;
8044;SDS011;4065;48.754;9.982;2024-02-28T14:48:06;37.00;;;22.65;;
8044;SDS011;4065;48.754;9.982;2024-02-28T14:51:29;37.58;;;23.95;;
8044;SDS011;4065;48.754;9.982;2024-02-28T14:54:51;36.70;;;23.40;;
8044;SDS011;4065;48.754;9.982;2024-02-28T14:58:13;37.90;;;24.20;;
8044;SDS011;4065;48.754;9.982;2024-02-28T15:01:35;41.00;;;27.10;;
8044;SDS011;4065;48.754;9.982;2024-02-28T15:04:58;38.72;;;24.75;;
8044;SDS011;4065;48.754;9.982;2024-02-28T15:08:20;39.55;;;24.85;;
8044;SDS011;4065;48.754;9.982;2024-02-28T15:11:44;45.58;;;26.30;;
8044;SDS011;4065;48.754;9.982;2024-02-28T15:15:06;43.33;;;27.23;;
8044;SDS011;4065;48.754;9.982;2024-02-28T15:18:29;39.97;;;25.98;;
8044;SDS011;4065;48.754;9.982;2024-02-28T15:21:52;41.25;;;25.67;;
8044;SDS011;4065;48.754;9.982;2024-02-28T15:25:14;42.22;;;25.13;;
8044;SDS011;4065;48.754;9.982;2024-02-28T15:28:36;41.80;;;26.83;;
8044;SDS011;4065;48.754;9.982;2024-02-28T15:31:58;46.88;;;27.33;;
8044;SDS011;4065;48.754;9.982;2024-02-28T15:35:20;38.95;;;25.23;;
8044;SDS011;4065;48.754;9.982;2024-02-28T15:38:44;48.25;;;26.25;;
8044;SDS011;4065;48.754;9.982;2024-02-28T15:42:07;42.70;;;26.60;;
8044;SDS011;4065;48.754;9.982;2024-02-28T15:45:29;45.50;;;27.02;;
8044;SDS011;4065;48.754;9.982;2024-02-28T15:48:51;45.78;;;27.13;;
8044;SDS011;4065;48.754;9.982;2024-02-28T15:52:13;41.65;;;25.55;;
8044;SDS011;4065;48.754;9.982;2024-02-28T15:55:36;42.28;;;25.23;;
8044;SDS011;4065;48.754;9.982;2024-02-28T15:58:58;45.17;;;26.20;;
8044;SDS011;4065;48.754;9.982;2024-02-28T16:02:20;41.95;;;25.58;;
8044;SDS011;4065;48.754;9.982;2024-02-28T16:05:43;38.90;;;25.08;;
8044;SDS011;4065;48.754;9.982;2024-02-28T16:09:05;42.20;;;24.67;;
8044;SDS011;4065;48.754;9.982;2024-02-28T16:12:31;41.42;;;25.50;;
8044;SDS011;4065;48.754;9.982;2024-02-28T16:15:53;43.30;;;25.25;;
8044;SDS011;4065;48.754;9.982;2024-02-28T16:19:15;42.15;;;25.13;;
8044;SDS011;4065;48.754;9.982;2024-02-28T16:22:37;40.13;;;24.25;;
8044;SDS011;4065;48.754;9.982;2024-02-28T16:26:01;48.05;;;26.33;;
8044;SDS011;4065;48.754;9.982;2024-02-28T16:29:25;45.38;;;26.90;;
8044;SDS011;4065;48.754;9.982;2024-02-28T16:32:48;46.88;;;28.70;;
8044;SDS011;4065;48.754;9.982;2024-02-28T16:36:10;45.97;;;26.63;;
8044;SDS011;4065;48.754;9.982;2024-02-28T16:39:32;46.97;;;27.73;;
8044;SDS011;4065;48.754;9.982;2024-02-28T16:42:55;45.90;;;27.55;;
8044;SDS011;4065;48.754;9.982;2024-02-28T16:46:18;46.40;;;27.52;;
8044;SDS011;4065;48.754;9.982;2024-02-28T16:49:40;40.70;;;27.63;;
8044;SDS011;4065;48.754;9.982;2024-02-28T16:53:03;43.67;;;26.08;;
8044;SDS011;4065;48.754;9.982;2024-02-28T16:56:25;42.67;;;24.73;;
8044;SDS011;4065;48.754;9.982;2024-02-28T16:59:47;43.78;;;25.58;;
8044;SDS011;4065;48.754;9.982;2024-02-28T17:03:10;45.53;;;25.55;;
8044;SDS011;4065;48.754;9.982;2024-02-28T17:06:32;51.95;;;29.90;;
8044;SDS011;4065;48.754;9.982;2024-02-28T17:09:55;49.50;;;30.35;;
8044;SDS011;4065;48.754;9.982;2024-02-28T17:13:17;48.45;;;27.67;;
8044;SDS011;4065;48.754;9.982;2024-02-28T17:16:40;45.70;;;26.85;;
8044;SDS011;4065;48.754;9.982;2024-02-28T17:20:03;51.60;;;31.70;;
8044;SDS011;4065;48.754;9.982;2024-02-28T17:23:27;50.83;;;28.90;;
8044;SDS011;4065;48.754;9.982;2024-02-28T17:26:50;41.53;;;27.40;;
8044;SDS011;4065;48.754;9.982;2024-02-28T17:30:12;54.08;;;30.40;;
8044;SDS011;4065;48.754;9.982;2024-02-28T17:33:34;40.60;;;25.60;;
8044;SDS011;4065;48.754;9.982;2024-02-28T17:36:58;42.95;;;27.27;;
8044;SDS011;4065;48.754;9.982;2024-02-28T17:40:21;45.40;;;26.58;;
8044;SDS011;4065;48.754;9.982;2024-02-28T17:43:44;42.45;;;25.65;;
8044;SDS011;4065;48.754;9.982;2024-02-28T17:47:06;42.42;;;25.48;;
8044;SDS011;4065;48.754;9.982;2024-02-28T17:50:28;40.25;;;25.63;;
8044;SDS011;4065;48.754;9.982;2024-02-28T17:53:51;49.25;;;30.13;;
8044;SDS011;4065;48.754;9.982;2024-02-28T17:57:15;44.95;;;28.90;;
8044;SDS011;4065;48.754;9.982;2024-02-28T18:00:37;45.60;;;27.90;;
8044;SDS011;4065;48.754;9.982;2024-02-28T18:03:59;45.78;;;28.75;;
8044;SDS011;4065;48.754;9.982;2024-02-28T18:07:23;43.88;;;27.67;;
8044;SDS011;4065;48.754;9.982;2024-02-28T18:10:47;46.90;;;28.20;;
8044;SDS011;4065;48.754;9.982;2024-02-28T18:14:09;41.95;;;27.02;;
8044;SDS011;4065;48.754;9.982;2024-02-28T18:17:32;39.08;;;24.08;;
8044;SDS011;4065;48.754;9.982;2024-02-28T18:20:54;58.63;;;33.47;;
8044;SDS011;4065;48.754;9.982;2024-02-28T18:24:16;66.40;;;38.75;;
8044;SDS011;4065;48.754;9.982;2024-02-28T18:27:40;57.45;;;33.10;;
8044;SDS011;4065;48.754;9.982;2024-02-28T18:31:01;47.28;;;29.08;;
8044;SDS011;4065;48.754;9.982;2024-02-28T18:34:24;53.65;;;32.28;;
8044;SDS011;4065;48.754;9.982;2024-02-28T18:37:45;55.30;;;32.20;;
8044;SDS011;4065;48.754;9.982;2024-02-28T18:41:07;49.40;;;29.20;;
8044;SDS011;4065;48.754;9.982;2024-02-28T18:44:31;52.58;;;30.52;;
8044;SDS011;4065;48.754;9.982;2024-02-28T18:47:53;51.33;;;30.60;;
8044;SDS011;4065;48.754;9.982;2024-02-28T18:51:15;46.20;;;28.05;;
8044;SDS011;4065;48.754;9.982;2024-02-28T18:54:37;43.45;;;28.30;;
8044;SDS011;4065;48.754;9.982;2024-02-28T18:57:59;45.17;;;28.58;;
8044;SDS011;4065;48.754;9.982;2024-02-28T19:01:22;47.17;;;27.77;;
8044;SDS011;4065;48.754;9.982;2024-02-28T19:04:45;49.58;;;28.48;;
8044;SDS011;4065;48.754;9.982;2024-02-28T19:08:07;66.55;;;40.03;;
8044;SDS011;4065;48.754;9.982;2024-02-28T19:11:32;56.25;;;33.53;;
8044;SDS011;4065;48.754;9.982;2024-02-28T19:14:54;59.72;;;36.17;;
8044;SDS011;4065;48.754;9.982;2024-02-28T19:18:17;46.78;;;30.10;;
8044;SDS011;4065;48.754;9.982;2024-02-28T19:21:39;56.88;;;30.17;;
8044;SDS011;4065;48.754;9.982;2024-02-28T19:25:01;50.05;;;30.33;;
8044;SDS011;4065;48.754;9.982;2024-02-28T19:28:25;48.55;;;30.20;;
8044;SDS011;4065;48.754;9.982;2024-02-28T19:31:47;49.38;;;30.48;;
8044;SDS011;4065;48.754;9.982;2024-02-28T19:35:11;49.10;;;31.10;;
8044;SDS011;4065;48.754;9.982;2024-02-28T19:38:33;49.90;;;30.13;;
8044;SDS011;4065;48.754;9.982;2024-02-28T19:41:55;53.78;;;30.83;;
8044;SDS011;4065;48.754;9.982;2024-02-28T19:45:18;50.67;;;30.48;;
8044;SDS011;4065;48.754;9.982;2024-02-28T19:48:40;45.38;;;28.80;;
8044;SDS011;4065;48.754;9.982;2024-02-28T19:52:05;42.00;;;28.25;;
8044;SDS011;4065;48.754;9.982;2024-02-28T19:55:27;48.55;;;29.25;;
8044;SDS011;4065;48.754;9.982;2024-02-28T19:58:49;49.70;;;29.35;;
8044;SDS011;4065;48.754;9.982;2024-02-28T20:02:11;46.80;;;29.55;;
8044;SDS011;4065;48.754;9.982;2024-02-28T20:05:33;49.50;;;30.25;;
8044;SDS011;4065;48.754;9.982;2024-02-28T20:08:57;49.83;;;30.55;;
8044;SDS011;4065;48.754;9.982;2024-02-28T20:12:19;47.13;;;29.23;;
8044;SDS011;4065;48.754;9.982;2024-02-28T20:15:41;51.05;;;30.40;;
8044;SDS011;4065;48.754;9.982;2024-02-28T20:19:03;49.33;;;29.52;;
8044;SDS011;4065;48.754;9.982;2024-02-28T20:22:25;53.20;;;31.40;;
8044;SDS011;4065;48.754;9.982;2024-02-28T20:25:48;47.03;;;29.92;;